createdAt,value
2019-01-17T00:01:52.888Z,97613.92
2019-01-17T00:04:22.855Z,97605.39
2019-01-17T00:07:10.939Z,97611.02
2019-01-17T00:09:51.393Z,97608.95
2019-01-17T00:12:24.065Z,97606.48
2019-01-17T00:15:00.261Z,97608.30
2019-01-17T00:17:33.349Z,97599.05
2019-01-17T00:20:03.304Z,97600.15
2019-01-17T00:22:42.300Z,97600.55
2019-01-17T00:25:30.625Z,97594.33
2019-01-17T00:28:03.629Z,97591.30
2019-01-17T00:30:36.227Z,97595.64
2019-01-17T00:33:15.230Z,97600.27
2019-01-17T00:35:51.624Z,97591.62
2019-01-17T00:38:21.665Z,97597.83
2019-01-17T00:40:51.697Z,97604.82
2019-01-17T00:43:27.131Z,97597.28
2019-01-17T00:46:02.948Z,97601.84
2019-01-17T00:48:32.943Z,97589.85
2019-01-17T00:51:18.976Z,97589.63
2019-01-17T00:53:51.692Z,97592.53
2019-01-17T00:56:36.587Z,97597.20
2019-01-17T00:59:12.978Z,97596.80
2019-01-17T01:01:48.818Z,97595.67
2019-01-17T01:04:18.861Z,97600.71
2019-01-17T01:07:05.115Z,97594.61
2019-01-17T01:09:41.305Z,97586.25
2019-01-17T01:12:11.328Z,97586.20
2019-01-17T01:14:47.076Z,97585.23
2019-01-17T01:17:20.314Z,97582.02
2019-01-17T01:20:06.506Z,97586.78
2019-01-17T01:22:39.582Z,97589.09
2019-01-17T01:25:20.012Z,97585.66
2019-01-17T01:27:59.330Z,97583.17
2019-01-17T01:30:43.958Z,97589.11
2019-01-17T01:33:31.907Z,97592.66
2019-01-17T01:36:01.901Z,97591.67
2019-01-17T01:38:40.734Z,97577.98
2019-01-17T01:41:10.715Z,97579.24
2019-01-17T01:43:40.673Z,97591.70
2019-01-17T01:46:22.386Z,97573.08
2019-01-17T01:48:52.403Z,97577.36
2019-01-17T01:51:31.145Z,97568.14
2019-01-17T01:53:59.469Z,97564.78
2019-01-17T01:56:27.792Z,97558.84
2019-01-17T01:58:56.132Z,97561.98
2019-01-17T02:01:25.171Z,97559.76
2019-01-17T02:03:53.570Z,97554.34
2019-01-17T02:06:21.955Z,97565.19
2019-01-17T02:08:50.537Z,97560.70
2019-01-17T02:11:18.857Z,97574.23
2019-01-17T02:13:47.793Z,97561.81
2019-01-17T02:16:16.289Z,97557.92
2019-01-17T02:18:44.641Z,97563.14
2019-01-17T02:21:13.245Z,97566.50
2019-01-17T02:23:41.937Z,97563.42
2019-01-17T02:26:10.622Z,97563.95
2019-01-17T02:28:39.009Z,97559.10
2019-01-17T02:31:07.416Z,97556.00
2019-01-17T02:33:35.732Z,97559.34
2019-01-17T02:36:04.663Z,97567.81
2019-01-17T02:38:32.978Z,97567.16
2019-01-17T02:41:01.628Z,97564.77
2019-01-17T02:43:29.968Z,97557.25
2019-01-17T02:45:58.363Z,97554.22
2019-01-17T02:48:26.701Z,97555.42
2019-01-17T02:50:55.016Z,97568.64
2019-01-17T02:53:23.489Z,97568.78
2019-01-17T02:55:51.878Z,97566.94
2019-01-17T02:58:20.491Z,97570.81
2019-01-17T03:00:48.888Z,97565.54
2019-01-17T03:03:17.196Z,97552.74
2019-01-17T03:05:45.659Z,97563.63
2019-01-17T03:08:13.984Z,97560.27
2019-01-17T03:10:42.723Z,97558.80
2019-01-17T03:13:11.105Z,97566.71
2019-01-17T03:15:39.520Z,97568.08
2019-01-17T03:18:07.876Z,97563.73
2019-01-17T03:20:36.255Z,97556.94
2019-01-17T03:23:04.867Z,97558.64
2019-01-17T03:25:33.254Z,97542.83
2019-01-17T03:28:01.653Z,97546.63
2019-01-17T03:30:30.289Z,97553.59
2019-01-17T03:32:58.631Z,97553.66
2019-01-17T03:35:27.009Z,97554.94
2019-01-17T03:37:55.414Z,97552.78
2019-01-17T03:40:23.800Z,97551.06
2019-01-17T03:42:52.207Z,97547.00
2019-01-17T03:45:20.521Z,97544.59
2019-01-17T03:47:48.841Z,97549.55
2019-01-17T03:50:17.240Z,97539.84
2019-01-17T03:52:45.624Z,97536.48
2019-01-17T03:55:16.458Z,97540.40
2019-01-17T03:57:44.858Z,97532.55
2019-01-17T04:00:16.508Z,97529.41
2019-01-17T04:02:44.901Z,97531.77
2019-01-17T04:05:13.577Z,97526.16
2019-01-17T04:07:42.060Z,97530.98
2019-01-17T04:10:13.514Z,97531.14
2019-01-17T04:12:41.853Z,97529.34
2019-01-17T04:15:12.105Z,97528.97
2019-01-17T04:17:40.518Z,97532.12
2019-01-17T04:20:14.045Z,97536.92
2019-01-17T04:22:42.788Z,97545.17
2019-01-17T04:25:11.267Z,97549.44
2019-01-17T04:27:39.651Z,97543.23
2019-01-17T04:30:11.299Z,97552.69
2019-01-17T04:32:40.005Z,97556.58
2019-01-17T04:35:08.354Z,97541.95
2019-01-17T04:37:36.957Z,97554.83
2019-01-17T04:40:08.531Z,97556.27
2019-01-17T04:42:36.845Z,97566.56
2019-01-17T04:45:06.807Z,97560.63
2019-01-17T04:47:35.210Z,97569.61
2019-01-17T04:50:04.472Z,97564.13
2019-01-17T04:52:32.955Z,97586.00
2019-01-17T04:55:05.443Z,97572.74
2019-01-17T04:57:31.700Z,97562.36
2019-01-17T05:00:00.017Z,97563.69
2019-01-17T05:02:28.430Z,97565.86
2019-01-17T05:04:56.741Z,97575.80
2019-01-17T05:07:25.064Z,97584.95
2019-01-17T05:09:53.402Z,97581.00
2019-01-17T05:12:21.713Z,97577.11
2019-01-17T05:14:50.060Z,97581.59
2019-01-17T05:17:18.759Z,97582.98
2019-01-17T05:19:47.233Z,97595.94
2019-01-17T05:22:15.639Z,97600.18
2019-01-17T05:24:44.052Z,97604.65
2019-01-17T05:27:12.378Z,97603.46
2019-01-17T05:29:40.764Z,97599.20
2019-01-17T05:32:09.238Z,97599.33
2019-01-17T05:34:39.611Z,97604.01
2019-01-17T05:37:08.373Z,97595.46
2019-01-17T05:39:36.690Z,97599.11
2019-01-17T05:42:05.446Z,97599.50
2019-01-17T05:44:33.760Z,97605.05
2019-01-17T05:47:02.166Z,97606.45
2019-01-17T05:49:30.483Z,97609.10
2019-01-17T05:51:58.871Z,97608.83
2019-01-17T05:54:27.211Z,97609.61
2019-01-17T05:56:55.596Z,97616.19
2019-01-17T05:59:23.957Z,97605.77
2019-01-17T06:01:52.274Z,97604.83
2019-01-17T06:04:20.608Z,97599.64
2019-01-17T06:06:48.926Z,97604.80
2019-01-17T06:09:17.644Z,97595.70
2019-01-17T06:11:45.969Z,97595.23
2019-01-17T06:14:14.289Z,97607.44
2019-01-17T06:16:42.627Z,97610.21
2019-01-17T06:19:10.951Z,97606.02
2019-01-17T06:21:39.358Z,97599.33
2019-01-17T06:24:07.746Z,97594.73
2019-01-17T06:26:36.142Z,97594.75
2019-01-17T06:29:04.857Z,97593.95
2019-01-17T06:31:33.581Z,97594.59
2019-01-17T06:34:01.984Z,97599.94
2019-01-17T06:36:30.309Z,97594.66
2019-01-17T06:38:58.650Z,97592.45
2019-01-17T06:41:26.975Z,97596.51
2019-01-17T06:43:55.328Z,97590.39
2019-01-17T06:46:23.644Z,97589.19
2019-01-17T06:48:51.963Z,97586.66
2019-01-17T06:51:20.336Z,97594.48
2019-01-17T06:53:48.659Z,97596.34
2019-01-17T06:56:17.133Z,97604.25
2019-01-17T06:58:45.891Z,97602.96
2019-01-17T07:01:14.220Z,97612.09
2019-01-17T07:03:42.536Z,97608.97
2019-01-17T07:06:10.893Z,97601.41
2019-01-17T07:08:39.619Z,97596.75
2019-01-17T07:11:07.936Z,97600.11
2019-01-17T07:13:36.283Z,97597.03
2019-01-17T07:16:05.063Z,97598.89
2019-01-17T07:18:33.409Z,97601.23
2019-01-17T07:21:01.717Z,97596.13
2019-01-17T07:23:30.419Z,97598.73
2019-01-17T07:25:58.812Z,97598.92
2019-01-17T07:28:27.503Z,97591.95
2019-01-17T07:30:55.813Z,97602.60
2019-01-17T07:33:24.489Z,97600.47
2019-01-17T07:35:52.807Z,97603.09
2019-01-17T07:38:21.289Z,97600.41
2019-01-17T07:40:49.607Z,97598.19
2019-01-17T07:43:17.991Z,97599.37
2019-01-17T07:45:46.377Z,97599.94
2019-01-17T07:48:14.641Z,97610.20
2019-01-17T07:50:42.987Z,97600.48
2019-01-17T07:53:11.388Z,97600.30
2019-01-17T07:55:39.717Z,97601.66
2019-01-17T07:58:08.100Z,97602.01
2019-01-17T08:00:36.448Z,97598.46
2019-01-17T08:03:05.138Z,97603.94
2019-01-17T08:05:33.617Z,97606.98
2019-01-17T08:08:02.003Z,97601.47
2019-01-17T08:10:30.505Z,97601.27
2019-01-17T08:12:58.839Z,97605.28
2019-01-17T08:15:27.239Z,97599.75
2019-01-17T08:17:55.575Z,97595.87
2019-01-17T08:20:24.522Z,97600.80
2019-01-17T08:22:52.927Z,97599.75
2019-01-17T08:25:21.584Z,97593.86
2019-01-17T08:27:49.963Z,97600.69
2019-01-17T08:30:24.009Z,97605.50
2019-01-17T08:32:52.403Z,97596.78
2019-01-17T08:35:21.166Z,97593.88
2019-01-17T08:37:49.549Z,97602.68
2019-01-17T08:40:29.913Z,97611.34
2019-01-17T08:42:58.596Z,97611.16
2019-01-17T08:45:26.990Z,97612.19
2019-01-17T08:47:55.370Z,97608.80
2019-01-17T08:50:24.154Z,97607.44
2019-01-17T08:52:52.462Z,97611.40
2019-01-17T08:55:21.170Z,97610.55
2019-01-17T08:57:49.913Z,97606.59
2019-01-17T09:00:23.960Z,97599.17
2019-01-17T09:02:52.295Z,97586.05
2019-01-17T09:05:20.680Z,97595.18
2019-01-17T09:07:49.180Z,97600.02
2019-01-17T09:10:20.233Z,97594.58
2019-01-17T09:12:48.632Z,97601.98
2019-01-17T09:15:22.927Z,97603.97
2019-01-17T09:17:51.343Z,97608.58
2019-01-17T09:20:19.990Z,97606.60
2019-01-17T09:22:48.374Z,97599.59
2019-01-17T09:25:18.031Z,97604.31
2019-01-17T09:27:46.349Z,97603.03
2019-01-17T09:30:17.124Z,97599.31
2019-01-17T09:32:45.436Z,97601.22
2019-01-17T09:35:15.411Z,97596.00
2019-01-17T09:37:44.270Z,97588.67
2019-01-17T09:40:15.227Z,97586.44
2019-01-17T09:42:43.991Z,97583.83
2019-01-17T09:45:12.940Z,97572.38
2019-01-17T09:47:41.413Z,97566.18
2019-01-17T09:50:12.900Z,97570.23
2019-01-17T09:52:41.305Z,97566.80
2019-01-17T09:55:10.342Z,97556.56
2019-01-17T09:57:38.693Z,97559.35
2019-01-17T10:00:21.608Z,97554.55
2019-01-17T10:02:50.366Z,97546.80
2019-01-17T10:05:18.743Z,97546.80
2019-01-17T10:07:47.305Z,97537.05
2019-01-17T10:10:17.984Z,97538.45
2019-01-17T10:12:46.829Z,97532.16
2019-01-17T10:15:21.150Z,97532.16
2019-01-17T10:18:01.922Z,97517.88
2019-01-17T10:21:05.264Z,97525.52
2019-01-17T10:23:39.426Z,97504.45
2019-01-17T10:26:10.938Z,97496.80
2019-01-17T10:29:01.091Z,97496.80
2019-01-17T10:31:38.007Z,97502.30
2019-01-17T10:34:12.276Z,97496.61
2019-01-17T10:36:49.594Z,97485.39
2019-01-17T10:39:29.534Z,97479.36
2019-01-17T10:42:03.967Z,97476.28
2019-01-17T10:44:35.822Z,97476.28
2019-01-17T10:47:19.322Z,97461.31
2019-01-17T10:49:53.531Z,97448.70
2019-01-17T10:52:59.960Z,97454.77
2019-01-17T10:55:34.180Z,97454.77
2019-01-17T10:58:14.944Z,97437.80
2019-01-17T11:00:55.324Z,97441.46
2019-01-17T11:03:35.422Z,97436.86
2019-01-17T11:06:26.488Z,97425.87
2019-01-17T11:09:17.798Z,97415.73
2019-01-17T11:11:49.301Z,97407.86
2019-01-17T11:14:21.115Z,97396.52
2019-01-17T11:17:26.722Z,97393.23
2019-01-17T11:20:00.872Z,97391.80
2019-01-17T11:22:50.478Z,97376.06
2019-01-17T11:25:53.548Z,97378.53
2019-01-17T11:28:30.884Z,97376.16
2019-01-17T11:31:11.005Z,97370.20
2019-01-17T11:33:57.639Z,97363.23
2019-01-17T11:36:44.189Z,97353.03
2019-01-17T11:39:20.870Z,97351.95
2019-01-17T11:41:55.120Z,97341.13
2019-01-17T11:45:01.254Z,97341.80
2019-01-17T11:47:59.901Z,97331.58
2019-01-17T11:50:43.257Z,97335.05
2019-01-17T11:53:14.734Z,97328.65
2019-01-17T11:56:07.020Z,97330.17
2019-01-17T11:59:13.178Z,97328.25
2019-01-17T12:02:03.427Z,97326.97
2019-01-17T12:04:31.182Z,97338.23
2019-01-17T12:07:02.269Z,97328.15
2019-01-17T12:09:30.580Z,97318.13
2019-01-17T12:11:59.355Z,97310.86
2019-01-17T12:14:27.739Z,97312.18
2019-01-17T12:16:56.067Z,97308.31
2019-01-17T12:19:24.488Z,97299.41
2019-01-17T12:21:52.822Z,97298.23
2019-01-17T12:24:21.130Z,97284.12
2019-01-17T12:26:49.850Z,97270.63
2019-01-17T12:29:18.228Z,97269.09
2019-01-17T12:31:46.627Z,97264.51
2019-01-17T12:34:15.207Z,97265.04
2019-01-17T12:36:43.537Z,97267.17
2019-01-17T12:39:13.989Z,97268.06
2019-01-17T12:41:42.319Z,97261.52
2019-01-17T12:44:10.634Z,97252.29
2019-01-17T12:46:39.364Z,97252.69
2019-01-17T12:49:08.052Z,97249.86
2019-01-17T12:51:36.361Z,97251.81
2019-01-17T12:54:05.133Z,97245.61
2019-01-17T12:56:33.806Z,97238.17
2019-01-17T12:59:02.208Z,97232.13
2019-01-17T13:01:30.562Z,97236.87
2019-01-17T13:03:59.041Z,97221.88
2019-01-17T13:06:27.355Z,97221.13
2019-01-17T13:08:55.700Z,97221.28
2019-01-17T13:11:24.310Z,97213.31
2019-01-17T13:13:52.639Z,97209.52
2019-01-17T13:16:21.376Z,97210.56
2019-01-17T13:18:49.987Z,97205.97
2019-01-17T13:21:18.435Z,97220.14
2019-01-17T13:23:47.353Z,97214.77
2019-01-17T13:26:15.741Z,97215.47
2019-01-17T13:28:44.308Z,97218.85
2019-01-17T13:31:12.758Z,97217.14
2019-01-17T13:33:41.093Z,97214.67
2019-01-17T13:36:11.322Z,97225.92
2019-01-17T13:38:39.662Z,97215.46
2019-01-17T13:41:08.043Z,97215.75
2019-01-17T13:43:36.410Z,97217.55
2019-01-17T13:46:05.697Z,97219.17
2019-01-17T13:48:34.296Z,97223.64
2019-01-17T13:51:02.748Z,97225.73
2019-01-17T13:53:31.159Z,97224.77
2019-01-17T13:55:59.472Z,97216.18
2019-01-17T13:58:27.816Z,97210.20
2019-01-17T14:00:56.194Z,97211.23
2019-01-17T14:03:24.516Z,97214.91
2019-01-17T14:16:13.768Z,97207.77
2019-01-17T14:18:42.111Z,97214.98
2019-01-17T14:21:10.568Z,97211.23
2019-01-17T14:23:38.900Z,97210.82
2019-01-17T14:26:07.225Z,97212.95
2019-01-17T14:28:35.983Z,97204.73
2019-01-17T14:31:04.370Z,97209.64
2019-01-17T14:33:33.077Z,97213.30
2019-01-17T14:36:01.529Z,97214.54
2019-01-17T14:38:29.864Z,97214.55
2019-01-17T14:40:58.515Z,97214.05
2019-01-17T14:43:26.985Z,97219.17
2019-01-17T14:45:55.369Z,97220.53
2019-01-17T14:48:23.851Z,97218.70
2019-01-17T14:50:52.185Z,97215.06
2019-01-17T14:53:20.507Z,97221.67
2019-01-17T14:55:48.832Z,97216.99
2019-01-17T14:58:17.147Z,97228.20
2019-01-17T15:00:45.499Z,97228.14
2019-01-17T15:03:13.788Z,97222.95
2019-01-17T15:05:42.189Z,97236.95
2019-01-17T15:08:10.508Z,97232.52
2019-01-17T15:10:39.877Z,97236.78
2019-01-17T15:13:08.800Z,97236.30
2019-01-17T15:15:37.503Z,97244.58
2019-01-17T15:18:06.589Z,97247.98
2019-01-17T15:20:34.929Z,97253.83
2019-01-17T15:23:03.412Z,97255.05
2019-01-17T15:25:31.761Z,97262.84
2019-01-17T15:28:00.138Z,97279.08
2019-01-17T15:30:28.633Z,97281.73
2019-01-17T15:32:57.017Z,97283.99
2019-01-17T15:35:25.369Z,97283.41
2019-01-17T15:37:53.784Z,97278.17
2019-01-17T15:40:27.316Z,97284.62
2019-01-17T15:42:56.056Z,97286.88
2019-01-17T15:45:24.364Z,97291.88
2019-01-17T15:47:52.694Z,97289.73
2019-01-17T15:50:21.279Z,97293.30
2019-01-17T15:52:50.073Z,97305.20
2019-01-17T15:55:18.654Z,97300.58
2019-01-17T15:57:47.654Z,97304.14
2019-01-17T16:00:24.247Z,97309.75
2019-01-17T16:02:52.708Z,97313.31
2019-01-17T16:05:21.384Z,97312.84
2019-01-17T16:07:49.701Z,97322.70
2019-01-17T16:10:18.075Z,97327.25
2019-01-17T16:12:46.409Z,97327.00
2019-01-17T16:15:20.685Z,97327.25
2019-01-17T16:17:49.084Z,97327.72
2019-01-17T16:20:17.861Z,97327.48
2019-01-17T16:22:46.646Z,97325.94
2019-01-17T16:25:15.670Z,97333.44
2019-01-17T16:27:44.404Z,97334.73
2019-01-17T16:30:18.849Z,97340.92
2019-01-17T16:32:47.233Z,97346.89
2019-01-17T16:35:15.767Z,97344.28
2019-01-17T16:37:44.904Z,97346.21
2019-01-17T16:40:14.027Z,97353.59
2019-01-17T16:42:42.711Z,97354.36
2019-01-17T16:45:16.590Z,97354.89
2019-01-17T16:47:45.496Z,97359.56
2019-01-17T16:50:16.169Z,97364.70
2019-01-17T16:52:44.697Z,97370.73
2019-01-17T16:55:14.661Z,97377.70
2019-01-17T16:57:48.797Z,97386.16
2019-01-17T17:00:16.397Z,97388.61
2019-01-17T17:02:44.708Z,97389.20
2019-01-17T17:05:13.097Z,97389.69
2019-01-17T17:07:41.461Z,97404.42
2019-01-17T17:10:14.905Z,97411.94
2019-01-17T17:12:43.272Z,97414.42
2019-01-17T17:15:11.663Z,97416.89
2019-01-17T17:17:40.103Z,97419.77
2019-01-17T17:20:14.463Z,97416.98
2019-01-17T17:22:42.837Z,97430.27
2019-01-17T17:25:11.240Z,97431.57
2019-01-17T17:27:39.559Z,97437.97
2019-01-17T17:30:19.305Z,97441.73
2019-01-17T17:32:47.613Z,97442.54
2019-01-17T17:35:15.937Z,97451.08
2019-01-17T17:37:44.412Z,97454.70
2019-01-17T17:40:18.687Z,97449.77
2019-01-17T17:42:47.464Z,97464.02
2019-01-17T17:45:15.857Z,97459.26
2019-01-17T17:47:44.229Z,97484.91
2019-01-17T17:50:15.739Z,97484.34
2019-01-17T17:52:44.052Z,97494.31
2019-01-17T17:55:14.918Z,97478.27
2019-01-17T17:57:43.361Z,97496.94
2019-01-17T18:00:24.674Z,97494.22
2019-01-17T18:02:53.647Z,97494.22
2019-01-17T18:05:21.971Z,97540.20
2019-01-17T18:07:50.283Z,97530.86
2019-01-17T18:10:18.679Z,97530.86
2019-01-17T18:12:46.992Z,97531.67
2019-01-17T18:15:17.050Z,97533.38
2019-01-17T18:17:45.917Z,97538.66
2019-01-17T18:20:15.684Z,97536.37
2019-01-17T18:22:44.071Z,97532.52
2019-01-17T18:25:13.217Z,97532.52
2019-01-17T18:27:41.600Z,97540.10
2019-01-17T18:30:18.842Z,97554.78
2019-01-17T18:32:47.474Z,97555.62
2019-01-17T18:35:16.324Z,97551.48
2019-01-17T18:37:44.723Z,97551.48
2019-01-17T18:40:16.450Z,97546.28
2019-01-17T18:42:45.093Z,97544.02
2019-01-17T18:45:17.039Z,97537.08
2019-01-17T18:47:45.534Z,97537.08
2019-01-17T18:50:22.629Z,97522.47
2019-01-17T18:52:50.928Z,97522.11
2019-01-17T18:55:19.250Z,97535.94
2019-01-17T18:57:47.663Z,97535.94
2019-01-17T19:00:25.755Z,97533.02
2019-01-17T19:02:54.083Z,97526.97
2019-01-17T19:05:22.966Z,97542.89
2019-01-17T19:07:51.946Z,97541.32
2019-01-17T19:10:21.374Z,97540.61
2019-01-17T19:12:50.144Z,97540.61
2019-01-17T19:15:21.508Z,97545.35
2019-01-17T19:17:49.846Z,97545.35
2019-01-17T19:20:20.767Z,97536.42
2019-01-17T19:22:49.334Z,97545.41
2019-01-17T19:25:18.304Z,97545.41
2019-01-17T19:27:46.690Z,97547.63
2019-01-17T19:30:18.099Z,97547.63
2019-01-17T19:32:46.792Z,97540.59
2019-01-17T19:35:15.168Z,97555.07
2019-01-17T19:37:44.207Z,97555.07
2019-01-17T19:40:15.630Z,97538.85
2019-01-17T19:42:43.921Z,97562.86
2019-01-17T19:45:14.383Z,97546.13
2019-01-17T19:47:42.855Z,97553.34
2019-01-17T19:50:14.625Z,97553.34
2019-01-17T19:52:43.018Z,97554.84
2019-01-17T19:55:11.783Z,97556.05
2019-01-17T19:57:40.105Z,97557.04
2019-01-17T20:00:20.523Z,97557.04
2019-01-17T20:02:49.001Z,97551.62
2019-01-17T20:05:20.128Z,97555.72
2019-01-17T20:07:48.528Z,97554.00
2019-01-17T20:10:19.761Z,97559.14
2019-01-17T20:12:48.168Z,97542.36
2019-01-17T20:15:16.865Z,97556.84
2019-01-17T20:17:45.263Z,97556.84
2019-01-17T20:20:16.785Z,97563.53
2019-01-17T20:22:45.504Z,97554.08
2019-01-17T20:25:13.876Z,97564.15
2019-01-17T20:27:42.200Z,97552.73
2019-01-17T20:30:25.771Z,97556.89
2019-01-17T20:32:55.164Z,97561.42
2019-01-17T20:35:23.475Z,97554.59
2019-01-17T20:37:51.800Z,97554.59
2019-01-17T20:40:22.048Z,97552.99
2019-01-17T20:42:50.442Z,97560.19
2019-01-17T20:45:18.911Z,97560.19
2019-01-17T20:47:47.417Z,97562.42
2019-01-17T20:50:19.296Z,97560.49
2019-01-17T20:52:47.634Z,97560.49
2019-01-17T20:55:15.945Z,97560.30
2019-01-17T20:57:45.405Z,97547.89
2019-01-17T21:00:25.779Z,97547.89
2019-01-17T21:02:54.108Z,97552.07
2019-01-17T21:05:23.039Z,97552.07
2019-01-17T21:07:51.515Z,97562.42
2019-01-17T21:10:20.052Z,97556.34
2019-01-17T21:12:48.757Z,97552.21
2019-01-17T21:15:17.133Z,97559.17
2019-01-17T21:17:45.436Z,97559.17
2019-01-17T21:20:14.741Z,97567.94
2019-01-17T21:22:43.411Z,97567.94
2019-01-17T21:25:14.750Z,97570.95
2019-01-17T21:27:43.130Z,97575.37
2019-01-17T21:30:17.199Z,97575.37
2019-01-17T21:32:45.511Z,97578.52
2019-01-17T21:35:14.226Z,97587.16
2019-01-17T21:37:42.531Z,97587.16
2019-01-17T21:40:14.162Z,97593.02
2019-01-17T21:42:42.658Z,97583.80
2019-01-17T21:45:16.051Z,97583.80
2019-01-17T21:47:44.437Z,97604.21
2019-01-17T21:50:18.529Z,97595.62
2019-01-17T21:52:46.910Z,97595.62
2019-01-17T21:55:15.620Z,97587.55
2019-01-17T21:57:44.011Z,97599.48
2019-01-17T22:00:18.102Z,97599.48
2019-01-17T22:02:46.406Z,97588.88
2019-01-17T22:05:14.815Z,97613.47
2019-01-17T22:07:43.262Z,97613.47
2019-01-17T22:10:14.239Z,97603.98
2019-01-17T22:12:42.610Z,97616.40
2019-01-17T22:15:17.012Z,97626.12
2019-01-17T22:17:45.322Z,97622.91
2019-01-17T22:20:14.195Z,97622.91
2019-01-17T22:22:42.492Z,97598.26
2019-01-17T22:25:13.740Z,97610.39
2019-01-17T22:27:42.403Z,97607.54
2019-01-17T22:30:13.889Z,97607.54
2019-01-17T22:32:42.214Z,97618.55
2019-01-17T22:35:10.611Z,97616.55
2019-01-17T22:37:38.905Z,97616.36
2019-01-17T22:40:10.439Z,97615.69
2019-01-17T22:42:38.837Z,97615.69
2019-01-17T22:45:13.141Z,97618.17
2019-01-17T22:47:43.234Z,97618.17
2019-01-17T22:50:14.997Z,97614.67
2019-01-17T22:52:43.309Z,97617.50
2019-01-17T22:55:11.695Z,97627.39
2019-01-17T22:57:40.004Z,97627.39
2019-01-17T23:00:23.262Z,97620.91
2019-01-17T23:02:51.573Z,97620.91
2019-01-17T23:05:19.900Z,97622.40
2019-01-17T23:07:48.562Z,97619.30
2019-01-17T23:10:16.955Z,97619.30
2019-01-17T23:12:45.261Z,97630.70
2019-01-17T23:15:13.663Z,97626.74
2019-01-17T23:17:42.034Z,97611.63
2019-01-17T23:20:11.129Z,97611.63
2019-01-17T23:22:39.442Z,97623.13
2019-01-17T23:25:08.543Z,97623.13
2019-01-17T23:27:36.849Z,97626.77
2019-01-17T23:30:08.354Z,97631.42
2019-01-17T23:32:36.661Z,97626.50
2019-01-17T23:35:07.102Z,97626.50
2019-01-17T23:37:35.513Z,97631.36
2019-01-17T23:40:05.668Z,97633.16
2019-01-17T23:42:33.988Z,97633.16
2019-01-17T23:45:02.674Z,97639.83
2019-01-17T23:47:31.367Z,97642.27
2019-01-17T23:50:00.234Z,97642.27
2019-01-17T23:52:28.660Z,97649.14
2019-01-17T23:54:57.330Z,97649.14
2019-01-17T23:57:25.666Z,97649.61
2019-01-17T23:59:53.977Z,97635.16
